Time,TemperatureF,DewpointF,PressureIn,WindDirection,WindDirectionDegrees,WindSpeedMPH,WindSpeedGustMPH,Humidity,HourlyPrecipIn,Conditions,Clouds,dailyrainin,SoftwareType,DateUTC
2013-03-18 00:52:00,13.0,9.0,-100.00,SW,230,9.0,11.0,87,-99.99,,,0.00,,2013-03-18 06:52:00,
2013-03-18 01:02:00,13.0,9.0,-100.00,SW,230,9.0,11.0,87,-99.99,,,0.00,,2013-03-18 07:02:00,
2013-03-18 01:12:00,13.0,9.0,-100.00,SW,230,9.0,11.0,87,-99.99,,,0.00,,2013-03-18 07:12:00,
2013-03-18 01:22:00,13.0,9.0,-100.00,SW,230,9.0,11.0,87,-99.99,,,0.00,,2013-03-18 07:22:00,
2013-03-18 01:52:00,12.0,8.0,-100.00,WSW,240,6.0,8.0,84,-99.99,,,0.00,,2013-03-18 07:52:00,
2013-03-18 02:02:00,12.0,8.0,-100.00,WSW,240,6.0,8.0,84,-99.99,,,0.00,,2013-03-18 08:02:00,
2013-03-18 02:12:00,12.0,8.0,-100.00,WSW,240,6.0,8.0,84,-99.99,,,0.00,,2013-03-18 08:12:00,
2013-03-18 02:22:00,12.0,8.0,-100.00,WSW,240,6.0,8.0,84,-99.99,,,0.00,,2013-03-18 08:22:00,
2013-03-18 02:52:00,11.0,6.0,-100.00,SSW,195,6.0,6.0,81,-99.99,,,0.00,,2013-03-18 08:52:00,
2013-03-18 03:02:00,11.0,6.0,-100.00,SSW,195,6.0,6.0,81,-99.99,,,0.00,,2013-03-18 09:02:00,
2013-03-18 03:12:00,11.0,6.0,-100.00,SSW,195,6.0,6.0,81,-99.99,,,0.00,,2013-03-18 09:12:00,
2013-03-18 03:22:00,11.0,6.0,-100.00,SSW,195,6.0,6.0,81,-99.99,,,0.00,,2013-03-18 09:22:00,
2013-03-18 03:23:00,13.0,8.0,-100.00,SSE,150,11.0,12.0,82,-99.99,,,0.00,,2013-03-18 09:23:00,
2013-03-18 03:53:00,13.0,8.0,-100.00,SSE,150,11.0,12.0,82,-99.99,,,0.00,,2013-03-18 09:53:00,
2013-03-18 04:03:00,13.0,8.0,-100.00,SSE,150,11.0,12.0,82,-99.99,,,0.00,,2013-03-18 10:03:00,
2013-03-18 04:12:00,13.0,8.0,-100.00,SSE,150,11.0,12.0,82,-99.99,,,0.00,,2013-03-18 10:12:00,
2013-03-18 04:53:00,12.0,9.0,-100.00,SSE,155,13.0,14.0,89,-99.99,,,0.00,,2013-03-18 10:53:00,
2013-03-18 05:03:00,12.0,9.0,-100.00,SSE,155,13.0,14.0,89,-99.99,,,0.00,,2013-03-18 11:03:00,
2013-03-18 05:12:00,12.0,9.0,-100.00,SSE,155,13.0,14.0,89,-99.99,,,0.00,,2013-03-18 11:12:00,
2013-03-18 05:22:00,12.0,9.0,-100.00,SSE,155,13.0,14.0,89,-99.99,,,0.00,,2013-03-18 11:22:00,
2013-03-18 05:52:00,11.0,9.0,-100.00,NNW,335,4.0,4.0,89,-99.99,,,0.00,,2013-03-18 11:52:00,
2013-03-18 06:02:00,11.0,9.0,-100.00,NNW,335,4.0,4.0,89,-99.99,,,0.00,,2013-03-18 12:02:00,
2013-03-18 06:12:00,11.0,9.0,-100.00,NNW,335,4.0,4.0,89,-99.99,,,0.00,,2013-03-18 12:12:00,
2013-03-18 06:22:00,11.0,9.0,-100.00,NNW,335,4.0,4.0,89,-99.99,,,0.00,,2013-03-18 12:22:00,
2013-03-18 06:52:00,12.0,9.0,-100.00,SSW,210,4.0,8.0,89,-99.99,,,0.00,,2013-03-18 12:52:00,
2013-03-18 07:02:00,12.0,9.0,-100.00,SSW,210,4.0,8.0,89,-99.99,,,0.00,,2013-03-18 13:02:00,
2013-03-18 07:12:00,12.0,9.0,-100.00,SSW,210,4.0,8.0,89,-99.99,,,0.00,,2013-03-18 13:12:00,
2013-03-18 07:22:00,12.0,9.0,-100.00,SSW,210,4.0,8.0,89,-99.99,,,0.00,,2013-03-18 13:22:00,
2013-03-18 07:52:00,16.0,14.0,-100.00,SSW,195,3.0,5.0,89,-99.99,,,-99.99,,2013-03-18 13:52:00,
2013-03-18 08:02:00,16.0,14.0,-100.00,SSW,195,3.0,5.0,89,-99.99,,,-99.99,,2013-03-18 14:02:00,
2013-03-18 08:12:00,16.0,14.0,-100.00,SSW,195,3.0,5.0,89,-99.99,,,-99.99,,2013-03-18 14:12:00,
2013-03-18 08:22:00,16.0,14.0,-100.00,SSW,195,3.0,5.0,89,-99.99,,,-99.99,,2013-03-18 14:22:00,
2013-03-18 08:52:00,21.0,18.0,-100.00,SSW,200,8.0,9.0,85,-99.99,,,0.00,,2013-03-18 14:52:00,
2013-03-18 09:02:00,21.0,18.0,-100.00,SSW,200,8.0,9.0,85,-99.99,,,0.00,,2013-03-18 15:02:00,
2013-03-18 09:12:00,21.0,18.0,-100.00,SSW,200,8.0,9.0,85,-99.99,,,0.00,,2013-03-18 15:12:00,
2013-03-18 09:22:00,21.0,18.0,-100.00,SSW,200,8.0,9.0,85,-99.99,,,0.00,,2013-03-18 15:22:00,
2013-03-18 09:52:00,27.0,20.0,-100.00,SSW,210,17.0,19.0,75,-99.99,,,0.00,,2013-03-18 15:52:00,
2013-03-18 10:02:00,27.0,20.0,-100.00,SSW,210,17.0,19.0,75,-99.99,,,0.00,,2013-03-18 16:02:00,
2013-03-18 10:12:00,27.0,20.0,-100.00,SSW,210,17.0,19.0,75,-99.99,,,0.00,,2013-03-18 16:12:00,
2013-03-18 10:22:00,27.0,20.0,-100.00,SSW,210,17.0,19.0,75,-99.99,,,0.00,,2013-03-18 16:22:00,
2013-03-18 10:52:00,31.0,14.0,-100.00,West,275,29.0,33.0,48,-99.99,,,0.00,,2013-03-18 16:52:00,
2013-03-18 11:02:00,31.0,14.0,-100.00,West,275,29.0,33.0,48,-99.99,,,0.00,,2013-03-18 17:02:00,
2013-03-18 11:12:00,31.0,14.0,-100.00,West,275,29.0,33.0,48,-99.99,,,0.00,,2013-03-18 17:12:00,
2013-03-18 11:22:00,31.0,14.0,-100.00,West,275,29.0,33.0,48,-99.99,,,0.00,,2013-03-18 17:22:00,
2013-03-18 11:52:00,35.0,10.0,-100.00,WNW,295,28.0,30.0,36,-99.99,,,0.00,,2013-03-18 17:52:00,
2013-03-18 12:02:00,35.0,10.0,-100.00,WNW,295,28.0,30.0,36,-99.99,,,0.00,,2013-03-18 18:02:00,
2013-03-18 12:12:00,35.0,10.0,-100.00,WNW,295,28.0,30.0,36,-99.99,,,0.00,,2013-03-18 18:12:00,
2013-03-18 12:22:00,35.0,10.0,-100.00,WNW,295,28.0,30.0,36,-99.99,,,0.00,,2013-03-18 18:22:00,
2013-03-18 12:52:00,35.0,8.0,-100.00,West,280,27.0,32.0,32,-99.99,,,0.00,,2013-03-18 18:52:00,
2013-03-18 13:02:00,35.0,8.0,-100.00,West,280,27.0,32.0,32,-99.99,,,0.00,,2013-03-18 19:02:00,
2013-03-18 13:12:00,35.0,8.0,-100.00,West,280,27.0,32.0,32,-99.99,,,0.00,,2013-03-18 19:12:00,
2013-03-18 13:22:00,35.0,8.0,-100.00,West,280,27.0,32.0,32,-99.99,,,0.00,,2013-03-18 19:22:00,
2013-03-18 13:52:00,36.0,11.0,-100.00,West,275,19.0,23.0,35,-99.99,,,0.00,,2013-03-18 19:52:00,
2013-03-18 14:02:00,36.0,11.0,-100.00,West,275,19.0,23.0,35,-99.99,,,0.00,,2013-03-18 20:02:00,
2013-03-18 14:12:00,36.0,11.0,-100.00,West,275,19.0,23.0,35,-99.99,,,0.00,,2013-03-18 20:12:00,
2013-03-18 14:22:00,36.0,11.0,-100.00,West,275,19.0,23.0,35,-99.99,,,0.00,,2013-03-18 20:22:00,
2013-03-18 14:52:00,35.0,10.0,-100.00,West,260,23.0,28.0,35,-99.99,,,0.00,,2013-03-18 20:52:00,
2013-03-18 15:02:00,35.0,10.0,-100.00,West,260,23.0,28.0,35,-99.99,,,0.00,,2013-03-18 21:02:00,
2013-03-18 15:11:00,35.0,10.0,-100.00,West,260,23.0,28.0,35,-99.99,,,0.00,,2013-03-18 21:11:00,
2013-03-18 15:22:00,35.0,10.0,-100.00,West,260,23.0,28.0,35,-99.99,,,0.00,,2013-03-18 21:22:00,
2013-03-18 15:53:00,35.0,9.0,-100.00,West,270,19.0,24.0,33,-99.99,,,0.00,,2013-03-18 21:53:00,
2013-03-18 16:03:00,35.0,9.0,-100.00,West,270,19.0,24.0,33,-99.99,,,0.00,,2013-03-18 22:03:00,
2013-03-18 16:12:00,35.0,9.0,-100.00,West,270,19.0,24.0,33,-99.99,,,0.00,,2013-03-18 22:12:00,
2013-03-18 16:22:00,35.0,9.0,-100.00,West,270,19.0,24.0,33,-99.99,,,0.00,,2013-03-18 22:22:00,
2013-03-18 16:52:00,33.0,9.0,-100.00,West,265,22.0,27.0,36,-99.99,,,0.00,,2013-03-18 22:52:00,
2013-03-18 17:02:00,33.0,9.0,-100.00,West,265,22.0,27.0,36,-99.99,,,0.00,,2013-03-18 23:02:00,
2013-03-18 17:12:00,33.0,9.0,-100.00,West,265,22.0,27.0,36,-99.99,,,0.00,,2013-03-18 23:12:00,
2013-03-18 17:22:00,33.0,9.0,-100.00,West,265,22.0,27.0,36,-99.99,,,0.00,,2013-03-18 23:22:00,
2013-03-18 17:53:00,34.0,12.0,-100.00,West,265,19.0,22.0,39,-99.99,,,0.00,,2013-03-18 23:53:00,
2013-03-18 18:02:00,34.0,12.0,-100.00,West,265,19.0,22.0,39,-99.99,,,0.00,,2013-03-19 00:02:00,
2013-03-18 18:12:00,34.0,12.0,-100.00,West,265,19.0,22.0,39,-99.99,,,0.00,,2013-03-19 00:12:00,
2013-03-18 18:22:00,34.0,12.0,-100.00,West,265,19.0,22.0,39,-99.99,,,0.00,,2013-03-19 00:22:00,
2013-03-18 18:52:00,32.0,11.0,-100.00,West,270,17.0,21.0,41,-99.99,,,0.00,,2013-03-19 00:52:00,
2013-03-18 19:02:00,32.0,11.0,-100.00,West,270,17.0,21.0,41,-99.99,,,0.00,,2013-03-19 01:02:00,
2013-03-18 19:12:00,32.0,11.0,-100.00,West,270,17.0,21.0,41,-99.99,,,0.00,,2013-03-19 01:12:00,
2013-03-18 19:22:00,32.0,11.0,-100.00,West,270,17.0,21.0,41,-99.99,,,0.00,,2013-03-19 01:22:00,
2013-03-18 19:52:00,31.0,13.0,-100.00,West,270,15.0,16.0,47,-99.99,,,0.00,,2013-03-19 01:52:00,
2013-03-18 20:02:00,31.0,13.0,-100.00,West,270,15.0,16.0,47,-99.99,,,0.00,,2013-03-19 02:02:00,
2013-03-18 20:12:00,31.0,13.0,-100.00,West,270,15.0,16.0,47,-99.99,,,0.00,,2013-03-19 02:12:00,
2013-03-18 20:22:00,31.0,13.0,-100.00,West,270,15.0,16.0,47,-99.99,,,0.00,,2013-03-19 02:22:00,
2013-03-18 20:52:00,27.0,11.0,-100.00,West,260,11.0,11.0,50,-99.99,,,0.00,,2013-03-19 02:52:00,
2013-03-18 21:02:00,27.0,11.0,-100.00,West,260,11.0,11.0,50,-99.99,,,0.00,,2013-03-19 03:02:00,
2013-03-18 21:12:00,27.0,11.0,-100.00,West,260,11.0,11.0,50,-99.99,,,0.00,,2013-03-19 03:12:00,
2013-03-18 21:22:00,27.0,11.0,-100.00,West,260,11.0,11.0,50,-99.99,,,0.00,,2013-03-19 03:22:00,
2013-03-18 21:54:00,23.0,16.0,-100.00,SW,220,9.0,11.0,74,-99.99,,,0.00,,2013-03-19 03:54:00,
2013-03-18 22:03:00,23.0,16.0,-100.00,SW,220,9.0,11.0,74,-99.99,,,0.00,,2013-03-19 04:03:00,
2013-03-18 22:13:00,23.0,16.0,-100.00,SW,220,9.0,11.0,74,-99.99,,,0.00,,2013-03-19 04:13:00,
2013-03-18 22:22:00,23.0,16.0,-100.00,SW,220,9.0,11.0,74,-99.99,,,0.00,,2013-03-19 04:22:00,
2013-03-18 22:52:00,24.0,17.0,-100.00,East,90,8.0,9.0,72,-99.99,,,0.00,,2013-03-19 04:52:00,
2013-03-18 23:02:00,24.0,17.0,-100.00,East,90,8.0,9.0,72,-99.99,,,0.00,,2013-03-19 05:02:00,
2013-03-18 23:11:00,24.0,17.0,-100.00,East,90,8.0,9.0,72,-99.99,,,0.00,,2013-03-19 05:11:00,
2013-03-18 23:22:00,24.0,17.0,-100.00,East,90,8.0,9.0,72,-99.99,,,0.00,,2013-03-19 05:22:00,
2013-03-18 23:52:00,24.0,14.0,-100.00,ENE,65,3.0,4.0,64,-99.99,,,-99.99,,2013-03-19 05:52:00,